Time;durP1;ratioP1;P1;durP2;ratioP2;P2;SDS_P1;SDS_P2;PMS_P1;PMS_P2;Temp;Humidity;BMP_temperature;BMP_pressure;BME280_temperature;BME280_humidity;BME280_pressure;Samples;Min_cycle;Max_cycle;Signal;HPM_P1;HPM_P2
2023/07/22 00:01:32;;;;;;;;;;;25.10;87.30;;;;;;5094279;28;19958;-49
2023/07/22 00:03:58;;;;;;;;;;;25.10;87.20;;;;;;5094150;28;19961;-49
2023/07/22 00:06:24;;;;;;;;;;;25.10;87.20;;;;;;5094478;28;20398;-49
2023/07/22 00:08:50;;;;;;;;;;;25.10;87.20;;;;;;5094169;28;19914;-47
2023/07/22 00:11:15;;;;;;;;;;;25.10;87.10;;;;;;5094084;28;19912;-48
2023/07/22 00:13:43;;;;;;;;;;;25.10;87.10;;;;;;5094381;28;19908;-50
2023/07/22 00:16:10;;;;;;;;;;;25.10;87.10;;;;;;5093943;28;19908;-48
2023/07/22 00:18:36;;;;;;;;;;;25.10;87.10;;;;;;5094250;28;19908;-51
2023/07/22 00:21:02;;;;;;;;;;;25.10;87.10;;;;;;5094273;28;19995;-47
2023/07/22 00:23:27;;;;;;;;;;;25.10;87.10;;;;;;5094150;28;20355;-47
2023/07/22 00:25:53;;;;;;;;;;;25.10;87.10;;;;;;5094136;28;19916;-51
2023/07/22 00:28:18;;;;;;;;;;;25.10;87.10;;;;;;5094163;28;19983;-51
2023/07/22 00:30:44;;;;;;;;;;;25.10;87.10;;;;;;5094148;28;19908;-53
2023/07/22 00:33:09;;;;;;;;;;;25.10;87.10;;;;;;5093893;28;20006;-49
2023/07/22 00:35:35;;;;;;;;;;;25.00;87.00;;;;;;5094048;28;19961;-48
2023/07/22 00:38:01;;;;;;;;;;;25.10;87.00;;;;;;5093751;28;19915;-48
2023/07/22 00:40:27;;;;;;;;;;;25.00;87.00;;;;;;5094303;28;19934;-46
2023/07/22 00:42:52;;;;;;;;;;;25.10;87.00;;;;;;5093807;28;19908;-47
2023/07/22 00:45:18;;;;;;;;;;;25.10;87.10;;;;;;5093862;28;19978;-50
2023/07/22 00:47:44;;;;;;;;;;;25.00;87.00;;;;;;5093586;28;19912;-49
2023/07/22 00:50:09;;;;;;;;;;;25.00;87.00;;;;;;5093741;28;19908;-49
2023/07/22 00:52:35;;;;;;;;;;;25.00;86.90;;;;;;5093681;28;19908;-51
2023/07/22 00:55:01;;;;;;;;;;;25.00;86.90;;;;;;5093938;28;19912;-51
2023/07/22 00:57:27;;;;;;;;;;;25.00;86.90;;;;;;5093974;28;19908;-46
2023/07/22 00:59:52;;;;;;;;;;;25.00;87.00;;;;;;5093880;28;19914;-50
2023/07/22 01:02:19;;;;;;;;;;;25.00;86.90;;;;;;5093339;28;20010;-52
2023/07/22 01:04:45;;;;;;;;;;;25.00;86.80;;;;;;5093816;28;20301;-48
2023/07/22 01:07:10;;;;;;;;;;;24.90;86.80;;;;;;5093886;28;19920;-46
2023/07/22 01:09:36;;;;;;;;;;;24.90;86.80;;;;;;5093779;28;19915;-49
2023/07/22 01:12:02;;;;;;;;;;;25.00;86.80;;;;;;5093668;28;20343;-48
2023/07/22 01:14:28;;;;;;;;;;;25.00;86.80;;;;;;5092514;28;19915;-50
2023/07/22 01:16:54;;;;;;;;;;;25.00;86.80;;;;;;5093486;28;20347;-50
2023/07/22 01:19:19;;;;;;;;;;;24.90;86.70;;;;;;5093712;28;19908;-49
2023/07/22 01:21:46;;;;;;;;;;;24.90;86.60;;;;;;5096888;28;19927;-47
2023/07/22 01:24:12;;;;;;;;;;;25.00;86.70;;;;;;5097462;28;20267;-48
2023/07/22 01:26:37;;;;;;;;;;;24.90;86.70;;;;;;5097154;28;20041;-47
2023/07/22 01:29:04;;;;;;;;;;;24.90;86.60;;;;;;5097117;28;19935;-47
2023/07/22 01:31:30;;;;;;;;;;;24.90;86.60;;;;;;5097420;28;19908;-49
2023/07/22 01:33:56;;;;;;;;;;;24.90;86.50;;;;;;5097346;28;19912;-49
2023/07/22 01:36:21;;;;;;;;;;;24.90;86.60;;;;;;5097253;28;19908;-51
2023/07/22 01:38:46;;;;;;;;;;;24.90;86.50;;;;;;5097234;28;19914;-50
2023/07/22 01:41:12;;;;;;;;;;;24.90;86.50;;;;;;5096864;28;19934;-52
2023/07/22 01:43:37;;;;;;;;;;;24.90;86.50;;;;;;5096798;28;19908;-50
2023/07/22 01:46:03;;;;;;;;;;;24.90;86.50;;;;;;5097092;28;19924;-49
2023/07/22 01:48:28;;;;;;;;;;;24.90;86.50;;;;;;5096792;28;20363;-51
2023/07/22 01:50:54;;;;;;;;;;;24.90;86.50;;;;;;5096733;28;19999;-45
2023/07/22 01:53:20;;;;;;;;;;;24.90;86.50;;;;;;5096748;28;20283;-46
2023/07/22 01:55:45;;;;;;;;;;;24.90;86.50;;;;;;5095657;28;19908;-47
2023/07/22 01:58:11;;;;;;;;;;;24.90;86.50;;;;;;5096962;28;20011;-49
2023/07/22 02:00:36;;;;;;;;;;;24.90;86.50;;;;;;5096458;28;19908;-51
2023/07/22 02:03:03;;;;;;;;;;;24.90;86.50;;;;;;5096552;28;20362;-46
2023/07/22 02:05:30;;;;;;;;;;;24.90;86.50;;;;;;5096306;28;20364;-48
2023/07/22 02:07:56;;;;;;;;;;;24.90;86.50;;;;;;5096757;28;19916;-51
2023/07/22 02:10:21;;;;;;;;;;;24.90;86.50;;;;;;5096380;28;19914;-47
2023/07/22 02:12:47;;;;;;;;;;;24.90;86.50;;;;;;5096568;28;20030;-47
2023/07/22 02:15:12;;;;;;;;;;;24.90;86.50;;;;;;5096187;28;20403;-46
2023/07/22 02:17:37;;;;;;;;;;;24.80;86.40;;;;;;5096539;28;19961;-50
2023/07/22 02:20:04;;;;;;;;;;;24.80;86.40;;;;;;5096487;28;19958;-50
2023/07/22 02:22:30;;;;;;;;;;;24.80;86.40;;;;;;5095182;28;19908;-52
2023/07/22 02:24:55;;;;;;;;;;;24.80;86.40;;;;;;5096058;28;20367;-49
2023/07/22 02:27:21;;;;;;;;;;;24.80;86.40;;;;;;5096243;28;19912;-47
2023/07/22 02:29:46;;;;;;;;;;;24.80;86.40;;;;;;5096019;28;19961;-46
2023/07/22 02:32:12;;;;;;;;;;;24.80;86.40;;;;;;5095005;28;20267;-51
2023/07/22 02:34:37;;;;;;;;;;;24.80;86.30;;;;;;5095972;28;19908;-51
2023/07/22 02:37:03;;;;;;;;;;;24.80;86.30;;;;;;5095942;28;19912;-48
2023/07/22 02:39:28;;;;;;;;;;;24.80;86.30;;;;;;5096062;28;19971;-50
2023/07/22 02:41:54;;;;;;;;;;;24.80;86.30;;;;;;5096106;28;19912;-51
2023/07/22 02:44:19;;;;;;;;;;;24.80;86.40;;;;;;5095552;28;19912;-48
2023/07/22 02:46:45;;;;;;;;;;;24.80;86.30;;;;;;5096170;28;20416;-51
2023/07/22 02:49:10;;;;;;;;;;;24.80;86.30;;;;;;5096259;28;19908;-48
2023/07/22 02:51:36;;;;;;;;;;;24.80;86.30;;;;;;5095897;28;19908;-50
2023/07/22 02:54:01;;;;;;;;;;;24.80;86.40;;;;;;5095569;28;20358;-50
2023/07/22 02:56:26;;;;;;;;;;;24.80;86.30;;;;;;5095735;28;19931;-49
2023/07/22 02:58:52;;;;;;;;;;;24.70;86.30;;;;;;5095458;28;19994;-53
2023/07/22 03:01:18;;;;;;;;;;;24.80;86.30;;;;;;5095699;28;20358;-50
2023/07/22 03:03:44;;;;;;;;;;;24.70;86.30;;;;;;5094411;28;20416;-51
2023/07/22 03:06:09;;;;;;;;;;;24.70;86.30;;;;;;5095288;28;19916;-50
2023/07/22 03:08:35;;;;;;;;;;;24.80;86.30;;;;;;5095849;28;20298;-52
2023/07/22 03:11:01;;;;;;;;;;;24.70;86.30;;;;;;5095467;28;19995;-53
2023/07/22 03:13:29;;;;;;;;;;;24.70;86.30;;;;;;5095143;28;19940;-50
2023/07/22 03:15:55;;;;;;;;;;;24.70;86.20;;;;;;5095115;28;19908;-50
2023/07/22 03:18:21;;;;;;;;;;;24.70;86.20;;;;;;5095054;28;19915;-48
2023/07/22 03:20:46;;;;;;;;;;;24.70;86.20;;;;;;5095043;28;19918;-49
2023/07/22 03:23:12;;;;;;;;;;;24.70;86.20;;;;;;5095321;28;19998;-50
2023/07/22 03:25:37;;;;;;;;;;;24.70;86.20;;;;;;5094935;28;19912;-51
2023/07/22 03:28:04;;;;;;;;;;;24.70;86.20;;;;;;5094885;28;19916;-50
2023/07/22 03:30:30;;;;;;;;;;;24.70;86.20;;;;;;5095178;28;19921;-51
2023/07/22 03:32:56;;;;;;;;;;;24.70;86.20;;;;;;5095095;28;19912;-52
2023/07/22 03:35:21;;;;;;;;;;;24.70;86.20;;;;;;5093823;28;19915;-49
2023/07/22 03:37:47;;;;;;;;;;;24.70;86.20;;;;;;5094805;28;19908;-51
2023/07/22 03:40:26;;;;;;;;;;;24.70;86.20;;;;;;5095013;28;19930;-48
2023/07/22 03:42:53;;;;;;;;;;;24.70;86.20;;;;;;5094336;28;20363;-51
2023/07/22 03:45:20;;;;;;;;;;;24.70;86.20;;;;;;5094839;28;19920;-52
2023/07/22 03:47:46;;;;;;;;;;;24.70;86.20;;;;;;5094548;28;19916;-52
2023/07/22 03:50:11;;;;;;;;;;;24.70;86.20;;;;;;5094539;28;19908;-49
2023/07/22 03:52:38;;;;;;;;;;;24.70;86.20;;;;;;5094309;28;19908;-49
2023/07/22 03:55:05;;;;;;;;;;;24.70;86.20;;;;;;5094356;28;19920;-50
2023/07/22 03:57:30;;;;;;;;;;;24.70;86.20;;;;;;5094365;28;19908;-52
2023/07/22 03:59:56;;;;;;;;;;;24.70;86.20;;;;;;5095029;28;20446;-51
2023/07/22 04:02:22;;;;;;;;;;;24.70;86.20;;;;;;5094422;28;19911;-52
2023/07/22 04:04:48;;;;;;;;;;;24.70;86.20;;;;;;5094217;28;19916;-49
2023/07/22 04:07:13;;;;;;;;;;;24.70;86.30;;;;;;5094676;28;20312;-48
2023/07/22 04:09:39;;;;;;;;;;;24.60;86.20;;;;;;5094177;28;19909;-51
2023/07/22 04:12:04;;;;;;;;;;;24.70;86.30;;;;;;5096966;28;19916;-51
2023/07/22 04:14:30;;;;;;;;;;;24.70;86.30;;;;;;5097605;28;20367;-49
2023/07/22 04:16:55;;;;;;;;;;;24.70;86.30;;;;;;5104656;28;19919;-51
2023/07/22 04:19:21;;;;;;;;;;;24.60;86.30;;;;;;5098437;28;19908;-47
2023/07/22 04:21:46;;;;;;;;;;;24.60;86.30;;;;;;5103431;28;19912;-46
2023/07/22 04:24:12;;;;;;;;;;;24.60;86.30;;;;;;5093882;28;20022;-51
2023/07/22 04:26:37;;;;;;;;;;;24.60;86.30;;;;;;5111232;28;19995;-51
2023/07/22 04:29:03;;;;;;;;;;;24.60;86.40;;;;;;5104879;28;20363;-52
2023/07/22 04:31:28;;;;;;;;;;;24.60;86.40;;;;;;5097373;28;20002;-49
2023/07/22 04:33:54;;;;;;;;;;;24.60;86.40;;;;;;5114471;28;20243;-51
2023/07/22 04:36:19;;;;;;;;;;;24.60;86.50;;;;;;5114471;28;19930;-50
2023/07/22 04:38:45;;;;;;;;;;;24.60;86.50;;;;;;5084451;28;19915;-50
2023/07/22 04:41:10;;;;;;;;;;;24.60;86.50;;;;;;5113930;28;19911;-50
2023/07/22 04:43:36;;;;;;;;;;;24.60;86.50;;;;;;5107990;28;20374;-51
2023/07/22 04:46:01;;;;;;;;;;;24.60;86.50;;;;;;5073998;28;19959;-52
2023/07/22 04:48:27;;;;;;;;;;;24.60;86.50;;;;;;5112878;28;19904;-49
2023/07/22 04:50:52;;;;;;;;;;;24.60;86.50;;;;;;5114669;28;20285;-49
2023/07/22 04:53:18;;;;;;;;;;;24.60;86.60;;;;;;5094134;28;19911;-48
2023/07/22 04:55:43;;;;;;;;;;;24.50;86.50;;;;;;5095681;28;19909;-51
2023/07/22 04:58:10;;;;;;;;;;;24.60;86.70;;;;;;5097849;28;19919;-49
2023/07/22 05:00:37;;;;;;;;;;;24.60;86.70;;;;;;5079868;28;19908;-51
2023/07/22 05:03:02;;;;;;;;;;;24.50;86.70;;;;;;5097653;28;19904;-52
2023/07/22 05:05:28;;;;;;;;;;;24.60;86.70;;;;;;5100534;28;20365;-52
2023/07/22 05:07:54;;;;;;;;;;;24.60;86.70;;;;;;5118336;28;19914;-51
2023/07/22 05:10:19;;;;;;;;;;;24.50;86.70;;;;;;5118116;28;19965;-49
2023/07/22 05:12:45;;;;;;;;;;;24.60;86.70;;;;;;5118455;28;19904;-48
2023/07/22 05:15:11;;;;;;;;;;;24.50;86.70;;;;;;5117851;28;20002;-48
2023/07/22 05:17:37;;;;;;;;;;;24.50;86.70;;;;;;5099893;28;20298;-51
2023/07/22 05:20:03;;;;;;;;;;;24.50;86.70;;;;;;5111639;28;19962;-50
2023/07/22 05:22:31;;;;;;;;;;;24.50;86.70;;;;;;5098264;28;20410;-51
2023/07/22 05:24:56;;;;;;;;;;;24.50;86.70;;;;;;5097530;28;19994;-48
2023/07/22 05:27:22;;;;;;;;;;;24.50;86.70;;;;;;5097274;28;20358;-48
2023/07/22 05:29:47;;;;;;;;;;;24.50;86.60;;;;;;5079422;28;20018;-48
2023/07/22 05:32:13;;;;;;;;;;;24.50;86.60;;;;;;5097070;28;20358;-49
2023/07/22 05:34:38;;;;;;;;;;;24.50;86.60;;;;;;5097330;28;19904;-49
2023/07/22 05:37:04;;;;;;;;;;;24.50;86.60;;;;;;5096500;28;19908;-52
2023/07/22 05:39:29;;;;;;;;;;;24.50;86.60;;;;;;5097385;28;19966;-52
2023/07/22 05:41:55;;;;;;;;;;;24.50;86.60;;;;;;5096709;28;19915;-52
2023/07/22 05:44:21;;;;;;;;;;;24.50;86.60;;;;;;5096483;28;20270;-49
2023/07/22 05:46:46;;;;;;;;;;;24.50;86.60;;;;;;5097110;28;19909;-51
2023/07/22 05:49:12;;;;;;;;;;;24.50;86.50;;;;;;5096788;28;19908;-47
2023/07/22 05:51:37;;;;;;;;;;;24.50;86.60;;;;;;5078005;28;20363;-47
2023/07/22 05:54:03;;;;;;;;;;;24.40;86.50;;;;;;5096514;28;19912;-48
2023/07/22 05:56:28;;;;;;;;;;;24.50;86.60;;;;;;5096494;28;19976;-49
2023/07/22 05:58:54;;;;;;;;;;;24.50;86.60;;;;;;5096062;28;19915;-48
2023/07/22 06:01:19;;;;;;;;;;;24.50;86.60;;;;;;5097638;28;19915;-50
2023/07/22 06:03:45;;;;;;;;;;;24.50;86.70;;;;;;5090006;28;19903;-48
2023/07/22 06:06:10;;;;;;;;;;;24.50;86.70;;;;;;5107847;28;19915;-46
2023/07/22 06:08:36;;;;;;;;;;;24.50;86.80;;;;;;5111593;28;20342;-46
2023/07/22 06:11:01;;;;;;;;;;;24.50;87.00;;;;;;5114580;28;19996;-45
2023/07/22 06:13:27;;;;;;;;;;;24.50;87.30;;;;;;5114593;28;19927;-44
2023/07/22 06:15:52;;;;;;;;;;;24.50;87.40;;;;;;5106544;28;20021;-49
2023/07/22 06:18:18;;;;;;;;;;;24.40;87.50;;;;;;5086416;28;20449;-49
2023/07/22 06:20:44;;;;;;;;;;;24.50;87.40;;;;;;5096714;28;20301;-49
2023/07/22 06:23:09;;;;;;;;;;;24.50;87.50;;;;;;5096121;28;20255;-49
2023/07/22 06:25:35;;;;;;;;;;;24.50;87.60;;;;;;5096299;28;19912;-46
2023/07/22 06:28:00;;;;;;;;;;;24.40;87.60;;;;;;5109238;28;20028;-49
2023/07/22 06:30:26;;;;;;;;;;;24.50;87.70;;;;;;5111649;28;19908;-46
2023/07/22 06:32:51;;;;;;;;;;;24.40;87.30;;;;;;5114088;28;20243;-44
2023/07/22 06:35:17;;;;;;;;;;;24.40;87.40;;;;;;5098264;28;19957;-50
2023/07/22 06:37:43;;;;;;;;;;;24.40;87.60;;;;;;5096275;28;20002;-49
2023/07/22 06:40:08;;;;;;;;;;;24.40;87.60;;;;;;5098494;28;19943;-46
2023/07/22 06:42:34;;;;;;;;;;;24.40;87.60;;;;;;5116452;28;20284;-48
2023/07/22 06:44:59;;;;;;;;;;;24.40;87.60;;;;;;5115803;28;19916;-47
2023/07/22 06:47:25;;;;;;;;;;;24.50;87.70;;;;;;5116194;28;19904;-52
2023/07/22 06:49:50;;;;;;;;;;;24.50;87.70;;;;;;5097990;28;19904;-51
2023/07/22 06:52:16;;;;;;;;;;;24.40;87.70;;;;;;5113230;28;20306;-51
2023/07/22 06:54:41;;;;;;;;;;;24.40;87.60;;;;;;5116434;28;19903;-52
2023/07/22 06:57:07;;;;;;;;;;;24.40;87.70;;;;;;5115910;28;19904;-50
2023/07/22 06:59:32;;;;;;;;;;;24.50;87.70;;;;;;5105176;28;20414;-48
2023/07/22 07:01:59;;;;;;;;;;;24.50;87.80;;;;;;5095619;28;20255;-50
2023/07/22 07:04:24;;;;;;;;;;;24.50;87.80;;;;;;5095349;28;19915;-54
2023/07/22 07:06:50;;;;;;;;;;;24.40;87.80;;;;;;5111114;28;20389;-52
2023/07/22 07:09:16;;;;;;;;;;;24.40;87.70;;;;;;5115660;28;19904;-52
2023/07/22 07:11:41;;;;;;;;;;;24.40;87.80;;;;;;5115441;28;19904;-52
2023/07/22 07:14:07;;;;;;;;;;;24.50;87.90;;;;;;5115796;28;19943;-61
2023/07/22 07:16:33;;;;;;;;;;;24.40;88.00;;;;;;5111411;28;20300;-65
2023/07/22 07:18:59;;;;;;;;;;;24.50;88.00;;;;;;5094500;28;19999;-67
2023/07/22 07:21:25;;;;;;;;;;;24.50;88.00;;;;;;5095364;28;19904;-67
2023/07/22 07:23:51;;;;;;;;;;;24.50;88.00;;;;;;5095228;28;20347;-66
2023/07/22 07:26:17;;;;;;;;;;;24.40;87.90;;;;;;5105410;28;19912;-68
2023/07/22 07:28:42;;;;;;;;;;;24.40;88.00;;;;;;5115457;28;19914;-65
2023/07/22 07:31:08;;;;;;;;;;;24.40;88.00;;;;;;5112415;28;19908;-67
2023/07/22 07:33:34;;;;;;;;;;;24.40;87.90;;;;;;5100655;28;19908;-64
2023/07/22 07:35:59;;;;;;;;;;;24.40;88.00;;;;;;5093801;28;20301;-66
2023/07/22 07:38:25;;;;;;;;;;;24.40;88.00;;;;;;5095615;28;19908;-62
2023/07/22 07:40:58;;;;;;;;;;;24.40;88.00;;;;;;5094596;28;19926;-71
2023/07/22 07:43:23;;;;;;;;;;;24.40;88.00;;;;;;5094200;28;20400;-60
2023/07/22 07:45:49;;;;;;;;;;;24.40;88.10;;;;;;5099817;28;19992;-67
2023/07/22 07:48:15;;;;;;;;;;;24.40;88.10;;;;;;5110250;28;19966;-71
2023/07/22 07:50:41;;;;;;;;;;;24.40;88.10;;;;;;5094389;28;19994;-68
2023/07/22 07:53:07;;;;;;;;;;;24.40;88.20;;;;;;5094953;28;19908;-61
2023/07/22 07:55:32;;;;;;;;;;;24.40;88.20;;;;;;5084992;28;19907;-71
2023/07/22 07:57:58;;;;;;;;;;;24.40;88.20;;;;;;5104253;28;19908;-67
2023/07/22 08:00:23;;;;;;;;;;;24.40;88.30;;;;;;5098055;28;19924;-73
2023/07/22 08:02:49;;;;;;;;;;;24.40;88.30;;;;;;5077086;28;19908;-66
2023/07/22 08:05:14;;;;;;;;;;;24.40;88.30;;;;;;5074328;28;20002;-66
2023/07/22 08:07:40;;;;;;;;;;;24.40;88.30;;;;;;5096339;28;20393;-68
2023/07/22 08:10:07;;;;;;;;;;;24.40;88.40;;;;;;5110590;28;20250;-67
2023/07/22 08:12:33;;;;;;;;;;;24.40;88.40;;;;;;5101785;28;19908;-67
2023/07/22 08:14:58;;;;;;;;;;;24.40;88.40;;;;;;5094100;28;19904;-67
2023/07/22 08:17:24;;;;;;;;;;;24.40;88.40;;;;;;5085267;28;19931;-65
2023/07/22 08:19:49;;;;;;;;;;;24.40;88.40;;;;;;5084516;28;19912;-69
2023/07/22 08:22:15;;;;;;;;;;;24.40;88.40;;;;;;5100431;28;19930;-67
2023/07/22 08:24:40;;;;;;;;;;;24.40;88.50;;;;;;5093758;28;19912;-76
2023/07/22 08:27:06;;;;;;;;;;;24.40;88.50;;;;;;5093803;28;20337;-68
2023/07/22 08:29:32;;;;;;;;;;;24.40;88.50;;;;;;5095686;28;19915;-66
2023/07/22 08:31:58;;;;;;;;;;;24.40;88.50;;;;;;5108991;28;19972;-66
2023/07/22 08:34:23;;;;;;;;;;;24.40;88.50;;;;;;5097093;28;19912;-65
2023/07/22 08:36:49;;;;;;;;;;;24.40;89.00;;;;;;5093178;28;19912;-70
2023/07/22 08:39:14;;;;;;;;;;;24.40;88.60;;;;;;5090627;28;19924;-69
2023/07/22 08:41:40;;;;;;;;;;;24.40;88.60;;;;;;5110547;28;20290;-69
2023/07/22 08:44:08;;;;;;;;;;;24.40;88.60;;;;;;5111994;28;19968;-71
2023/07/22 08:46:33;;;;;;;;;;;24.40;88.60;;;;;;5103716;28;20007;-70
2023/07/22 08:49:00;;;;;;;;;;;24.40;88.40;;;;;;5113030;28;20361;-74
2023/07/22 08:51:29;;;;;;;;;;;24.40;88.30;;;;;;5114100;28;19911;-69
2023/07/22 08:53:58;;;;;;;;;;;24.40;88.50;;;;;;5102749;28;19959;-63
2023/07/22 08:56:24;;;;;;;;;;;24.40;88.50;;;;;;5112854;28;19950;-70
2023/07/22 08:58:51;;;;;;;;;;;24.40;88.50;;;;;;5114108;28;19910;-69
2023/07/22 09:01:16;;;;;;;;;;;24.40;88.50;;;;;;5106048;28;19931;-66
2023/07/22 09:03:42;;;;;;;;;;;24.40;88.50;;;;;;5100961;28;20354;-74
2023/07/22 09:06:07;;;;;;;;;;;24.40;88.50;;;;;;5093328;28;19966;-65
2023/07/22 09:08:33;;;;;;;;;;;24.40;88.50;;;;;;5093389;28;19908;-72
2023/07/22 09:10:59;;;;;;;;;;;24.30;88.50;;;;;;5084615;28;19913;-64
2023/07/22 09:13:26;;;;;;;;;;;24.40;88.60;;;;;;5073346;28;19908;-67
2023/07/22 09:15:52;;;;;;;;;;;24.40;88.60;;;;;;5073169;28;19904;-68
2023/07/22 09:18:17;;;;;;;;;;;24.30;88.50;;;;;;5055157;28;19905;-64
2023/07/22 09:20:43;;;;;;;;;;;24.30;88.50;;;;;;5111234;28;19914;-71
2023/07/22 09:23:08;;;;;;;;;;;24.30;88.60;;;;;;5114177;28;19994;-63
2023/07/22 09:25:34;;;;;;;;;;;24.40;88.60;;;;;;5114039;28;20022;-70
2023/07/22 09:28:00;;;;;;;;;;;24.40;88.60;;;;;;5111555;28;19943;-73
2023/07/22 09:30:26;;;;;;;;;;;24.30;88.60;;;;;;5093250;28;20325;-70
2023/07/22 09:32:53;;;;;;;;;;;24.40;88.70;;;;;;5093284;28;19904;-66
2023/07/22 09:35:19;;;;;;;;;;;24.40;88.80;;;;;;5093272;28;20250;-67
2023/07/22 09:37:45;;;;;;;;;;;24.30;88.70;;;;;;5093337;28;19904;-62
2023/07/22 09:40:16;;;;;;;;;;;24.30;88.70;;;;;;5095654;28;19908;-67
2023/07/22 09:42:43;;;;;;;;;;;24.30;88.80;;;;;;5095931;28;20355;-66
2023/07/22 09:45:09;;;;;;;;;;;24.30;88.80;;;;;;5096746;28;20255;-67
2023/07/22 09:47:41;;;;;;;;;;;24.40;88.80;;;;;;5096630;28;19908;-66
2023/07/22 09:50:10;;;;;;;;;;;24.30;88.80;;;;;;5117438;28;19904;-64
2023/07/22 09:52:40;;;;;;;;;;;24.30;88.80;;;;;;5098073;28;19916;-70
2023/07/22 09:55:07;;;;;;;;;;;24.30;88.90;;;;;;5090944;28;19908;-64
2023/07/22 09:57:33;;;;;;;;;;;24.30;88.90;;;;;;5096789;28;19904;-70
2023/07/22 09:59:59;;;;;;;;;;;24.30;88.90;;;;;;5099240;28;19908;-68
2023/07/22 10:02:25;;;;;;;;;;;24.30;88.90;;;;;;5080556;28;20396;-66
2023/07/22 10:04:52;;;;;;;;;;;24.40;89.00;;;;;;5095886;28;20437;-70
2023/07/22 10:07:18;;;;;;;;;;;24.30;88.90;;;;;;5096082;28;19920;-69
2023/07/22 10:09:44;;;;;;;;;;;24.30;88.90;;;;;;5095650;28;19915;-61
2023/07/22 10:12:11;;;;;;;;;;;24.30;89.00;;;;;;5098833;28;19996;-64
2023/07/22 10:14:37;;;;;;;;;;;24.30;89.00;;;;;;5098034;28;19908;-70
2023/07/22 10:17:03;;;;;;;;;;;24.30;89.00;;;;;;5097729;28;20005;-63
2023/07/22 10:19:29;;;;;;;;;;;24.30;89.00;;;;;;5096600;28;19916;-69
2023/07/22 10:21:55;;;;;;;;;;;24.30;89.00;;;;;;5094476;28;19912;-66
2023/07/22 10:24:21;;;;;;;;;;;24.30;89.00;;;;;;5095377;28;20023;-70
2023/07/22 10:26:50;;;;;;;;;;;24.30;89.00;;;;;;5098183;28;19912;-65
2023/07/22 10:29:17;;;;;;;;;;;24.30;89.10;;;;;;5096094;28;19911;-69
2023/07/22 10:31:42;;;;;;;;;;;24.30;89.10;;;;;;5079655;28;19998;-63
2023/07/22 10:34:08;;;;;;;;;;;24.30;89.10;;;;;;5100319;28;19939;-70
2023/07/22 10:36:33;;;;;;;;;;;24.30;89.10;;;;;;5095404;28;19966;-65
2023/07/22 10:38:59;;;;;;;;;;;24.30;89.10;;;;;;5095706;28;19955;-76
2023/07/22 10:41:24;;;;;;;;;;;24.30;89.20;;;;;;5077944;28;19904;-74
2023/07/22 10:43:57;;;;;;;;;;;24.30;89.20;;;;;;5095025;28;19919;-65
2023/07/22 10:46:33;;;;;;;;;;;24.30;89.20;;;;;;5094259;28;20390;-59
2023/07/22 10:49:17;;;;;;;;;;;24.30;89.20;;;;;;5090699;28;19908;-68
2023/07/22 10:51:50;;;;;;;;;;;24.30;89.30;;;;;;5095403;28;19999;-68
2023/07/22 10:54:30;;;;;;;;;;;24.30;89.30;;;;;;5094888;28;19985;-63
2023/07/22 10:56:56;;;;;;;;;;;24.30;89.30;;;;;;5104327;28;20278;-66
2023/07/22 10:59:26;;;;;;;;;;;24.30;89.30;;;;;;5095306;28;19912;-68
2023/07/22 11:01:53;;;;;;;;;;;24.30;89.30;;;;;;5076728;28;19961;-67
2023/07/22 11:04:32;;;;;;;;;;;24.30;89.30;;;;;;5094249;28;20432;-69
2023/07/22 11:07:04;;;;;;;;;;;24.30;89.40;;;;;;5105306;28;19988;-65
2023/07/22 11:09:30;;;;;;;;;;;24.30;89.40;;;;;;5114911;28;19904;-67
2023/07/22 11:11:59;;;;;;;;;;;24.30;89.50;;;;;;5100858;28;19912;-66
2023/07/22 11:14:25;;;;;;;;;;;24.30;87.40;;;;;;5093380;28;19939;-62
2023/07/22 11:16:51;;;;;;;;;;;24.30;87.60;;;;;;5096244;28;19915;-66
2023/07/22 11:19:18;;;;;;;;;;;24.30;88.30;;;;;;5093068;28;19904;-68
2023/07/22 11:21:44;;;;;;;;;;;24.30;88.40;;;;;;5076347;28;19912;-59
2023/07/22 11:24:09;;;;;;;;;;;24.30;88.60;;;;;;5093176;28;20393;-62
2023/07/22 11:26:35;;;;;;;;;;;24.30;88.50;;;;;;5094391;28;19911;-68
2023/07/22 11:29:01;;;;;;;;;;;24.30;88.60;;;;;;5076613;28;19908;-65
2023/07/22 11:31:31;;;;;;;;;;;24.30;88.50;;;;;;5076799;28;19904;-69
2023/07/22 11:33:57;;;;;;;;;;;24.30;88.40;;;;;;5105544;28;20362;-70
2023/07/22 11:36:22;;;;;;;;;;;24.30;88.20;;;;;;5114952;28;19904;-67
2023/07/22 11:38:48;;;;;;;;;;;24.30;88.20;;;;;;5107166;28;20053;-74
2023/07/22 11:41:14;;;;;;;;;;;24.30;87.10;;;;;;5095291;28;19939;-72
2023/07/22 11:43:40;;;;;;;;;;;24.30;85.90;;;;;;5114259;28;19977;-73
2023/07/22 11:46:06;;;;;;;;;;;24.30;87.30;;;;;;5114321;28;19982;-74
2023/07/22 11:48:31;;;;;;;;;;;24.30;87.70;;;;;;5115004;28;20006;-74
2023/07/22 11:51:00;;;;;;;;;;;24.30;88.00;;;;;;5114894;28;19915;-74
2023/07/22 11:53:27;;;;;;;;;;;24.30;88.10;;;;;;5114774;28;19908;-70
2023/07/22 11:55:54;;;;;;;;;;;24.30;88.20;;;;;;5114709;28;19976;-71
2023/07/22 11:58:26;;;;;;;;;;;24.30;88.20;;;;;;5115015;28;19908;-69
2023/07/22 12:01:02;;;;;;;;;;;24.30;88.20;;;;;;5114754;28;19919;-70
2023/07/22 12:03:30;;;;;;;;;;;24.30;88.20;;;;;;5114595;28;19908;-74
2023/07/22 12:06:00;;;;;;;;;;;24.30;88.20;;;;;;5114822;28;19924;-72
2023/07/22 12:08:25;;;;;;;;;;;24.30;88.20;;;;;;5114534;28;20282;-72
2023/07/22 12:11:00;;;;;;;;;;;24.30;88.30;;;;;;5114853;28;19961;-72
2023/07/22 12:13:25;;;;;;;;;;;24.30;88.30;;;;;;5114257;28;20354;-73
2023/07/22 12:16:05;;;;;;;;;;;24.30;88.30;;;;;;5114031;28;19914;-72
2023/07/22 12:18:43;;;;;;;;;;;24.30;88.30;;;;;;5114033;28;19908;-74
2023/07/22 12:21:09;;;;;;;;;;;24.30;88.30;;;;;;5114039;28;19915;-72
2023/07/22 12:23:36;;;;;;;;;;;24.30;88.30;;;;;;5114700;28;19908;-70
2023/07/22 12:26:01;;;;;;;;;;;24.30;88.30;;;;;;5114397;28;19916;-71
2023/07/22 12:28:27;;;;;;;;;;;24.30;88.30;;;;;;5114870;28;19908;-74
2023/07/22 12:30:52;;;;;;;;;;;24.30;88.20;;;;;;5114487;28;20006;-73
2023/07/22 12:33:18;;;;;;;;;;;24.30;88.30;;;;;;5114189;28;19923;-73
2023/07/22 12:35:43;;;;;;;;;;;24.20;88.20;;;;;;5114290;28;19912;-69
2023/07/22 12:38:09;;;;;;;;;;;24.20;88.20;;;;;;5114490;28;20412;-74
2023/07/22 12:40:34;;;;;;;;;;;24.30;88.30;;;;;;5114186;28;19908;-73
2023/07/22 12:43:00;;;;;;;;;;;24.30;88.20;;;;;;5114312;28;19908;-73
2023/07/22 12:45:25;;;;;;;;;;;24.20;88.20;;;;;;5113813;28;19951;-73
2023/07/22 12:47:50;;;;;;;;;;;24.20;88.20;;;;;;5113816;28;20007;-71
2023/07/22 12:50:16;;;;;;;;;;;24.30;88.30;;;;;;5114044;28;19915;-76
2023/07/22 12:52:41;;;;;;;;;;;24.20;88.20;;;;;;5114198;28;19908;-74
2023/07/22 12:55:07;;;;;;;;;;;24.20;88.20;;;;;;5113661;28;19911;-73
2023/07/22 12:57:33;;;;;;;;;;;24.20;88.20;;;;;;5113561;28;19914;-73
2023/07/22 12:59:58;;;;;;;;;;;24.30;88.30;;;;;;5113696;28;19929;-71
2023/07/22 13:02:25;;;;;;;;;;;24.30;88.20;;;;;;5113830;28;19911;-71
2023/07/22 13:04:50;;;;;;;;;;;24.20;88.20;;;;;;5114049;28;19934;-74
2023/07/22 13:07:16;;;;;;;;;;;24.20;88.20;;;;;;5113889;28;20259;-71
2023/07/22 13:09:48;;;;;;;;;;;24.20;88.20;;;;;;5113555;28;19907;-71
2023/07/22 13:12:14;;;;;;;;;;;24.30;88.20;;;;;;5112565;28;19919;-70
2023/07/22 13:14:39;;;;;;;;;;;24.20;88.10;;;;;;5113146;28;19908;-70
2023/07/22 13:17:05;;;;;;;;;;;24.20;88.10;;;;;;5115905;28;20414;-70
2023/07/22 13:19:30;;;;;;;;;;;24.20;88.20;;;;;;5118295;28;19911;-69
2023/07/22 13:21:56;;;;;;;;;;;24.20;88.10;;;;;;5117701;28;20263;-70
2023/07/22 13:24:21;;;;;;;;;;;24.20;88.20;;;;;;5117658;28;19907;-70
2023/07/22 13:26:47;;;;;;;;;;;24.20;88.20;;;;;;5117818;28;20277;-72
2023/07/22 13:29:12;;;;;;;;;;;24.20;88.10;;;;;;5117381;28;19908;-73
2023/07/22 13:31:38;;;;;;;;;;;24.20;88.10;;;;;;5117297;28;19908;-73
2023/07/22 13:34:04;;;;;;;;;;;24.20;88.10;;;;;;5117466;28;19912;-73
2023/07/22 13:36:29;;;;;;;;;;;24.20;88.10;;;;;;5117505;28;19977;-73
2023/07/22 13:38:55;;;;;;;;;;;24.20;88.10;;;;;;5117609;28;19908;-73
2023/07/22 13:41:20;;;;;;;;;;;24.20;88.10;;;;;;5118001;28;20333;-73
2023/07/22 13:43:46;;;;;;;;;;;24.20;88.10;;;;;;5117459;28;19915;-73
2023/07/22 13:46:11;;;;;;;;;;;24.20;88.10;;;;;;5117440;28;19920;-71
2023/07/22 13:48:37;;;;;;;;;;;24.20;88.10;;;;;;5099073;28;19918;-72
2023/07/22 13:51:02;;;;;;;;;;;24.20;88.10;;;;;;5110232;28;19912;-71
2023/07/22 13:53:28;;;;;;;;;;;24.20;88.10;;;;;;5098054;28;19908;-71
2023/07/22 13:55:53;;;;;;;;;;;24.20;88.10;;;;;;5117047;28;20408;-72
2023/07/22 13:58:19;;;;;;;;;;;24.20;88.10;;;;;;5116787;28;20362;-72
2023/07/22 14:00:44;;;;;;;;;;;24.20;88.10;;;;;;5116732;28;19915;-72
2023/07/22 14:03:10;;;;;;;;;;;24.20;88.10;;;;;;5116729;28;19907;-71
2023/07/22 14:05:35;;;;;;;;;;;24.20;88.20;;;;;;5113937;28;19915;-69
2023/07/22 14:08:01;;;;;;;;;;;24.20;88.20;;;;;;5100359;28;19916;-63
2023/07/22 14:10:27;;;;;;;;;;;24.20;88.10;;;;;;5108088;28;19944;-73